Details for KLM Cityhopper at EHAM




Go Back


Latest METAR
Local Time

EHAM 241355Z 07015KT 040V100 CAVOK 03/M06 Q1026 NOSIG

24/02/2018, 15:08:36

Description
Results
KLM Cityhopper Logo
Number of Pilots based at EHAM
2 Pilots Based here
Number of KLM Cityhopper Flights Departed from EHAM
0 Flights Departed
Number of KLM Cityhopper Flights Arrived at EHAM
0 Flights Arrived
Number of KLM Cityhopper Schedules Departing from EHAM
175 Schedules
Number of KLM Cityhopper Schedules Arriving at EHAM
204 Schedules
Number of KLM Cityhopper Schedules Departing from EHAM availible today
127 Schedules Today
Number of KLM Cityhopper Schedules Arriving at EHAM availible today
129 Schedules Today
Average Landing Rate at EHAM
-212 fpm
KLM Cityhopper Average Landing Rate at EHAM
0 fpm
Total Fuel Purchased at EHAM by KLM Cityhopper
0.00 kgs / 0.00 lbs

Pilots Based at EHAM


Pilot ID
Pilot Name
Pilot Rank
No. of Flights
No. of Flying Hours
Youri Rutten
82
194.26
James Hatcher
122
482.05
Content